sensor_id;sensor_type;location;lat;lon;timestamp;temperature;humidity
58339;DHT22;68636;52.704;6.536;2023-04-03T00:01:14;2.40;99.90
58339;DHT22;68636;52.704;6.536;2023-04-03T00:03:40;2.40;99.90
58339;DHT22;68636;52.704;6.536;2023-04-03T00:06:10;2.20;99.90
58339;DHT22;68636;52.704;6.536;2023-04-03T00:08:37;2.40;99.90
58339;DHT22;68636;52.704;6.536;2023-04-03T00:11:04;2.30;99.90
58339;DHT22;68636;52.704;6.536;2023-04-03T00:13:31;2.30;99.90
58339;DHT22;68636;52.704;6.536;2023-04-03T00:15:57;2.30;99.90
58339;DHT22;68636;52.704;6.536;2023-04-03T00:18:22;2.30;99.90
58339;DHT22;68636;52.704;6.536;2023-04-03T00:20:49;2.30;99.90
58339;DHT22;68636;52.704;6.536;2023-04-03T00:23:15;2.50;99.90
58339;DHT22;68636;52.704;6.536;2023-04-03T00:25:41;2.60;99.90
58339;DHT22;68636;52.704;6.536;2023-04-03T00:28:08;2.40;99.90
58339;DHT22;68636;52.704;6.536;2023-04-03T00:30:34;2.30;99.90
58339;DHT22;68636;52.704;6.536;2023-04-03T00:33:00;2.40;99.90
58339;DHT22;68636;52.704;6.536;2023-04-03T00:35:26;2.60;99.90
58339;DHT22;68636;52.704;6.536;2023-04-03T00:37:54;2.50;99.90
58339;DHT22;68636;52.704;6.536;2023-04-03T00:40:19;2.80;99.90
58339;DHT22;68636;52.704;6.536;2023-04-03T00:47:39;2.10;99.90
58339;DHT22;68636;52.704;6.536;2023-04-03T00:50:07;2.10;99.90
58339;DHT22;68636;52.704;6.536;2023-04-03T00:52:32;2.10;99.90
58339;DHT22;68636;52.704;6.536;2023-04-03T00:55:02;2.10;99.90
58339;DHT22;68636;52.704;6.536;2023-04-03T00:57:30;2.10;99.90
58339;DHT22;68636;52.704;6.536;2023-04-03T01:00:06;2.10;99.90
58339;DHT22;68636;52.704;6.536;2023-04-03T01:02:34;2.10;99.90
58339;DHT22;68636;52.704;6.536;2023-04-03T01:05:00;2.30;99.90
58339;DHT22;68636;52.704;6.536;2023-04-03T01:07:29;2.00;99.90
58339;DHT22;68636;52.704;6.536;2023-04-03T01:10:01;2.00;99.90
58339;DHT22;68636;52.704;6.536;2023-04-03T01:12:31;2.00;99.90
58339;DHT22;68636;52.704;6.536;2023-04-03T01:15:06;2.00;99.90
58339;DHT22;68636;52.704;6.536;2023-04-03T01:18:16;2.00;99.90
58339;DHT22;68636;52.704;6.536;2023-04-03T01:21:14;2.00;99.90
58339;DHT22;68636;52.704;6.536;2023-04-03T01:26:13;1.90;99.90
58339;DHT22;68636;52.704;6.536;2023-04-03T01:28:39;1.80;99.90
58339;DHT22;68636;52.704;6.536;2023-04-03T01:31:26;1.80;99.90
58339;DHT22;68636;52.704;6.536;2023-04-03T01:33:52;1.80;99.90
58339;DHT22;68636;52.704;6.536;2023-04-03T01:36:27;1.80;99.90
58339;DHT22;68636;52.704;6.536;2023-04-03T01:38:54;1.70;99.90
58339;DHT22;68636;52.704;6.536;2023-04-03T01:41:21;1.70;99.90
58339;DHT22;68636;52.704;6.536;2023-04-03T01:43:48;1.70;99.90
58339;DHT22;68636;52.704;6.536;2023-04-03T01:46:15;1.70;99.90
58339;DHT22;68636;52.704;6.536;2023-04-03T01:48:41;1.70;99.90
58339;DHT22;68636;52.704;6.536;2023-04-03T01:51:06;1.70;99.90
58339;DHT22;68636;52.704;6.536;2023-04-03T01:53:32;1.80;99.90
58339;DHT22;68636;52.704;6.536;2023-04-03T01:55:58;1.70;99.90
58339;DHT22;68636;52.704;6.536;2023-04-03T01:58:24;1.80;99.90
58339;DHT22;68636;52.704;6.536;2023-04-03T02:00:51;1.70;99.90
58339;DHT22;68636;52.704;6.536;2023-04-03T02:03:16;1.60;99.90
58339;DHT22;68636;52.704;6.536;2023-04-03T02:05:42;1.60;99.90
58339;DHT22;68636;52.704;6.536;2023-04-03T02:08:08;1.60;99.90
58339;DHT22;68636;52.704;6.536;2023-04-03T02:10:34;1.60;99.90
58339;DHT22;68636;52.704;6.536;2023-04-03T02:13:00;1.50;99.90
58339;DHT22;68636;52.704;6.536;2023-04-03T02:15:25;1.50;99.90
58339;DHT22;68636;52.704;6.536;2023-04-03T02:17:51;1.40;99.90
58339;DHT22;68636;52.704;6.536;2023-04-03T02:20:18;1.40;99.90
58339;DHT22;68636;52.704;6.536;2023-04-03T02:22:44;1.40;99.90
58339;DHT22;68636;52.704;6.536;2023-04-03T02:25:10;1.40;99.90
58339;DHT22;68636;52.704;6.536;2023-04-03T02:27:36;1.40;99.90
58339;DHT22;68636;52.704;6.536;2023-04-03T02:30:02;1.40;99.90
58339;DHT22;68636;52.704;6.536;2023-04-03T02:32:28;1.40;99.90
58339;DHT22;68636;52.704;6.536;2023-04-03T02:34:55;1.40;99.90
58339;DHT22;68636;52.704;6.536;2023-04-03T02:37:21;1.30;99.90
58339;DHT22;68636;52.704;6.536;2023-04-03T02:39:47;1.30;99.90
58339;DHT22;68636;52.704;6.536;2023-04-03T02:42:13;1.20;99.90
58339;DHT22;68636;52.704;6.536;2023-04-03T02:44:38;1.20;99.90
58339;DHT22;68636;52.704;6.536;2023-04-03T02:47:04;1.20;99.90
58339;DHT22;68636;52.704;6.536;2023-04-03T02:49:31;1.10;99.90
58339;DHT22;68636;52.704;6.536;2023-04-03T02:51:57;1.00;99.90
58339;DHT22;68636;52.704;6.536;2023-04-03T02:54:23;1.00;99.90
58339;DHT22;68636;52.704;6.536;2023-04-03T02:56:50;1.00;99.90
58339;DHT22;68636;52.704;6.536;2023-04-03T02:59:16;0.90;99.90
58339;DHT22;68636;52.704;6.536;2023-04-03T03:01:42;0.90;99.90
58339;DHT22;68636;52.704;6.536;2023-04-03T03:04:08;0.90;99.90
58339;DHT22;68636;52.704;6.536;2023-04-03T03:06:33;0.90;99.90
58339;DHT22;68636;52.704;6.536;2023-04-03T03:08:59;0.90;99.90
58339;DHT22;68636;52.704;6.536;2023-04-03T03:11:25;0.80;99.90
58339;DHT22;68636;52.704;6.536;2023-04-03T03:13:51;0.80;99.90
58339;DHT22;68636;52.704;6.536;2023-04-03T03:16:17;0.80;99.90
58339;DHT22;68636;52.704;6.536;2023-04-03T03:18:42;0.80;99.90
58339;DHT22;68636;52.704;6.536;2023-04-03T03:21:09;0.70;99.90
58339;DHT22;68636;52.704;6.536;2023-04-03T03:23:35;0.70;99.90
58339;DHT22;68636;52.704;6.536;2023-04-03T03:26:07;0.60;99.90
58339;DHT22;68636;52.704;6.536;2023-04-03T03:28:34;0.60;99.90
58339;DHT22;68636;52.704;6.536;2023-04-03T03:31:00;0.60;99.90
58339;DHT22;68636;52.704;6.536;2023-04-03T03:33:26;0.50;99.90
58339;DHT22;68636;52.704;6.536;2023-04-03T03:35:53;0.50;99.90
58339;DHT22;68636;52.704;6.536;2023-04-03T03:38:19;0.40;99.90
58339;DHT22;68636;52.704;6.536;2023-04-03T03:40:47;0.40;99.90
58339;DHT22;68636;52.704;6.536;2023-04-03T03:43:13;0.30;99.90
58339;DHT22;68636;52.704;6.536;2023-04-03T03:45:39;0.30;99.90
58339;DHT22;68636;52.704;6.536;2023-04-03T03:48:05;0.20;99.90
58339;DHT22;68636;52.704;6.536;2023-04-03T03:50:31;0.20;99.90
58339;DHT22;68636;52.704;6.536;2023-04-03T03:52:57;0.20;99.90
58339;DHT22;68636;52.704;6.536;2023-04-03T03:55:23;0.20;99.90
58339;DHT22;68636;52.704;6.536;2023-04-03T03:57:48;0.20;99.90
58339;DHT22;68636;52.704;6.536;2023-04-03T04:00:14;0.20;99.90
58339;DHT22;68636;52.704;6.536;2023-04-03T04:02:41;0.10;99.90
58339;DHT22;68636;52.704;6.536;2023-04-03T04:05:07;0.20;99.90
58339;DHT22;68636;52.704;6.536;2023-04-03T04:07:33;0.20;99.90
58339;DHT22;68636;52.704;6.536;2023-04-03T04:09:58;0.20;99.90
58339;DHT22;68636;52.704;6.536;2023-04-03T04:12:24;0.10;99.90
58339;DHT22;68636;52.704;6.536;2023-04-03T04:14:50;0.10;99.90
58339;DHT22;68636;52.704;6.536;2023-04-03T04:17:16;0.10;99.90
58339;DHT22;68636;52.704;6.536;2023-04-03T04:19:41;0.10;99.90
58339;DHT22;68636;52.704;6.536;2023-04-03T04:22:07;0.20;99.90
58339;DHT22;68636;52.704;6.536;2023-04-03T04:24:33;0.10;99.90
58339;DHT22;68636;52.704;6.536;2023-04-03T04:26:58;0.10;99.90
58339;DHT22;68636;52.704;6.536;2023-04-03T04:29:24;0.20;99.90
58339;DHT22;68636;52.704;6.536;2023-04-03T04:31:50;0.20;99.90
58339;DHT22;68636;52.704;6.536;2023-04-03T04:34:16;0.20;99.90
58339;DHT22;68636;52.704;6.536;2023-04-03T04:36:41;0.20;99.90
58339;DHT22;68636;52.704;6.536;2023-04-03T04:39:07;0.30;99.90
58339;DHT22;68636;52.704;6.536;2023-04-03T04:41:33;0.20;99.90
58339;DHT22;68636;52.704;6.536;2023-04-03T04:44:00;0.30;99.90
58339;DHT22;68636;52.704;6.536;2023-04-03T04:46:26;0.20;99.90
58339;DHT22;68636;52.704;6.536;2023-04-03T04:48:52;0.20;99.90
58339;DHT22;68636;52.704;6.536;2023-04-03T04:51:18;0.20;99.90
58339;DHT22;68636;52.704;6.536;2023-04-03T04:53:43;0.10;99.90
58339;DHT22;68636;52.704;6.536;2023-04-03T04:56:09;0.10;99.90
58339;DHT22;68636;52.704;6.536;2023-04-03T04:58:36;0.00;99.90
58339;DHT22;68636;52.704;6.536;2023-04-03T05:01:06;0.00;99.90
58339;DHT22;68636;52.704;6.536;2023-04-03T05:03:33;-0.10;99.90
58339;DHT22;68636;52.704;6.536;2023-04-03T05:05:59;-0.10;99.90
58339;DHT22;68636;52.704;6.536;2023-04-03T05:08:25;-0.10;99.90
58339;DHT22;68636;52.704;6.536;2023-04-03T05:10:50;-0.10;99.90
58339;DHT22;68636;52.704;6.536;2023-04-03T05:13:16;-0.10;99.90
58339;DHT22;68636;52.704;6.536;2023-04-03T05:15:42;-0.10;99.90
58339;DHT22;68636;52.704;6.536;2023-04-03T05:18:08;-0.10;99.90
58339;DHT22;68636;52.704;6.536;2023-04-03T05:20:34;0.00;99.90
58339;DHT22;68636;52.704;6.536;2023-04-03T05:23:00;0.00;99.90
58339;DHT22;68636;52.704;6.536;2023-04-03T05:25:26;0.00;99.90
58339;DHT22;68636;52.704;6.536;2023-04-03T05:27:51;0.00;99.90
58339;DHT22;68636;52.704;6.536;2023-04-03T05:30:18;0.00;99.90
58339;DHT22;68636;52.704;6.536;2023-04-03T05:32:44;0.00;99.90
58339;DHT22;68636;52.704;6.536;2023-04-03T05:35:10;0.00;99.90
58339;DHT22;68636;52.704;6.536;2023-04-03T05:37:36;0.00;99.90
58339;DHT22;68636;52.704;6.536;2023-04-03T05:40:03;0.10;99.90
58339;DHT22;68636;52.704;6.536;2023-04-03T05:42:29;0.10;99.90
58339;DHT22;68636;52.704;6.536;2023-04-03T05:44:55;0.20;99.90
58339;DHT22;68636;52.704;6.536;2023-04-03T05:47:22;0.10;99.90
58339;DHT22;68636;52.704;6.536;2023-04-03T05:49:47;0.20;99.90
58339;DHT22;68636;52.704;6.536;2023-04-03T05:52:28;0.20;99.90
58339;DHT22;68636;52.704;6.536;2023-04-03T05:54:54;0.30;99.90
58339;DHT22;68636;52.704;6.536;2023-04-03T05:57:20;0.40;99.90
58339;DHT22;68636;52.704;6.536;2023-04-03T05:59:47;0.40;99.90
58339;DHT22;68636;52.704;6.536;2023-04-03T06:02:15;0.50;99.90
58339;DHT22;68636;52.704;6.536;2023-04-03T06:04:41;0.50;99.90
58339;DHT22;68636;52.704;6.536;2023-04-03T06:07:12;0.60;99.90
58339;DHT22;68636;52.704;6.536;2023-04-03T06:09:39;0.60;99.90
58339;DHT22;68636;52.704;6.536;2023-04-03T06:12:05;0.60;99.90
58339;DHT22;68636;52.704;6.536;2023-04-03T06:14:31;0.70;99.90
58339;DHT22;68636;52.704;6.536;2023-04-03T06:16:56;0.70;99.90
58339;DHT22;68636;52.704;6.536;2023-04-03T06:19:23;0.80;99.90
58339;DHT22;68636;52.704;6.536;2023-04-03T06:21:49;0.90;99.90
58339;DHT22;68636;52.704;6.536;2023-04-03T06:24:15;0.90;99.90
58339;DHT22;68636;52.704;6.536;2023-04-03T06:26:42;1.00;99.90
58339;DHT22;68636;52.704;6.536;2023-04-03T06:29:08;1.00;99.90
58339;DHT22;68636;52.704;6.536;2023-04-03T06:31:34;1.10;99.90
58339;DHT22;68636;52.704;6.536;2023-04-03T06:34:02;1.20;99.90
58339;DHT22;68636;52.704;6.536;2023-04-03T06:36:28;1.20;99.90
58339;DHT22;68636;52.704;6.536;2023-04-03T06:38:55;1.30;99.90
58339;DHT22;68636;52.704;6.536;2023-04-03T06:41:21;1.40;99.90
58339;DHT22;68636;52.704;6.536;2023-04-03T06:43:47;1.40;99.90
58339;DHT22;68636;52.704;6.536;2023-04-03T06:46:18;1.40;99.90
58339;DHT22;68636;52.704;6.536;2023-04-03T06:48:44;1.50;99.90
58339;DHT22;68636;52.704;6.536;2023-04-03T06:51:22;1.50;99.90
58339;DHT22;68636;52.704;6.536;2023-04-03T06:53:48;1.60;99.90
58339;DHT22;68636;52.704;6.536;2023-04-03T06:56:14;1.70;99.90
58339;DHT22;68636;52.704;6.536;2023-04-03T06:58:40;1.70;99.90
58339;DHT22;68636;52.704;6.536;2023-04-03T07:01:07;1.80;99.90
58339;DHT22;68636;52.704;6.536;2023-04-03T07:03:35;1.90;99.90
58339;DHT22;68636;52.704;6.536;2023-04-03T07:06:01;1.90;99.90
58339;DHT22;68636;52.704;6.536;2023-04-03T07:08:26;1.90;99.90
58339;DHT22;68636;52.704;6.536;2023-04-03T07:10:52;1.90;99.90
58339;DHT22;68636;52.704;6.536;2023-04-03T07:13:18;2.00;99.90
58339;DHT22;68636;52.704;6.536;2023-04-03T07:15:44;2.10;99.90
58339;DHT22;68636;52.704;6.536;2023-04-03T07:18:09;2.20;99.90
58339;DHT22;68636;52.704;6.536;2023-04-03T07:20:35;2.20;99.90
58339;DHT22;68636;52.704;6.536;2023-04-03T07:23:01;2.30;99.90
58339;DHT22;68636;52.704;6.536;2023-04-03T07:25:28;2.40;99.90
58339;DHT22;68636;52.704;6.536;2023-04-03T07:27:54;2.50;99.90
58339;DHT22;68636;52.704;6.536;2023-04-03T07:30:20;2.60;99.90
58339;DHT22;68636;52.704;6.536;2023-04-03T07:32:46;2.60;99.90
58339;DHT22;68636;52.704;6.536;2023-04-03T07:35:12;2.60;99.90
58339;DHT22;68636;52.704;6.536;2023-04-03T07:37:38;2.70;99.90
58339;DHT22;68636;52.704;6.536;2023-04-03T07:40:04;2.80;99.90
58339;DHT22;68636;52.704;6.536;2023-04-03T07:42:31;2.90;99.90
58339;DHT22;68636;52.704;6.536;2023-04-03T07:44:57;3.10;99.90
58339;DHT22;68636;52.704;6.536;2023-04-03T07:47:22;3.10;99.90
58339;DHT22;68636;52.704;6.536;2023-04-03T07:49:48;3.10;99.90
58339;DHT22;68636;52.704;6.536;2023-04-03T07:52:14;3.20;99.90
58339;DHT22;68636;52.704;6.536;2023-04-03T07:54:41;3.20;99.90
58339;DHT22;68636;52.704;6.536;2023-04-03T07:57:07;3.30;99.90
58339;DHT22;68636;52.704;6.536;2023-04-03T07:59:33;3.40;99.90
58339;DHT22;68636;52.704;6.536;2023-04-03T08:01:59;3.40;99.90
58339;DHT22;68636;52.704;6.536;2023-04-03T08:04:25;3.50;99.90
58339;DHT22;68636;52.704;6.536;2023-04-03T08:06:52;3.60;99.90
58339;DHT22;68636;52.704;6.536;2023-04-03T08:09:18;3.70;99.90
58339;DHT22;68636;52.704;6.536;2023-04-03T08:11:45;3.70;99.90
58339;DHT22;68636;52.704;6.536;2023-04-03T08:14:11;3.80;99.90
58339;DHT22;68636;52.704;6.536;2023-04-03T08:16:43;4.00;99.90
58339;DHT22;68636;52.704;6.536;2023-04-03T08:19:08;4.10;99.90
58339;DHT22;68636;52.704;6.536;2023-04-03T08:21:36;4.10;99.90
58339;DHT22;68636;52.704;6.536;2023-04-03T08:24:02;4.20;99.90
58339;DHT22;68636;52.704;6.536;2023-04-03T08:26:28;4.20;99.90
58339;DHT22;68636;52.704;6.536;2023-04-03T08:28:54;4.30;99.90
58339;DHT22;68636;52.704;6.536;2023-04-03T08:31:20;4.40;99.90
58339;DHT22;68636;52.704;6.536;2023-04-03T08:33:46;4.50;99.90
58339;DHT22;68636;52.704;6.536;2023-04-03T08:36:23;4.50;99.90
58339;DHT22;68636;52.704;6.536;2023-04-03T08:38:51;4.60;99.90
58339;DHT22;68636;52.704;6.536;2023-04-03T08:46:20;4.90;99.90
58339;DHT22;68636;52.704;6.536;2023-04-03T08:51:17;5.20;99.90
58339;DHT22;68636;52.704;6.536;2023-04-03T08:54:01;5.10;99.90
58339;DHT22;68636;52.704;6.536;2023-04-03T08:56:30;5.10;99.90
58339;DHT22;68636;52.704;6.536;2023-04-03T08:59:11;5.20;99.90
58339;DHT22;68636;52.704;6.536;2023-04-03T09:01:39;5.30;99.90
58339;DHT22;68636;52.704;6.536;2023-04-03T09:04:14;5.20;99.90
58339;DHT22;68636;52.704;6.536;2023-04-03T09:06:42;5.30;99.90
58339;DHT22;68636;52.704;6.536;2023-04-03T09:09:35;5.40;99.90
58339;DHT22;68636;52.704;6.536;2023-04-03T09:23:22;5.70;99.90
58339;DHT22;68636;52.704;6.536;2023-04-03T09:25:49;5.80;99.90
58339;DHT22;68636;52.704;6.536;2023-04-03T09:28:16;5.80;99.90
58339;DHT22;68636;52.704;6.536;2023-04-03T09:30:42;5.90;99.90
58339;DHT22;68636;52.704;6.536;2023-04-03T09:33:08;5.90;99.90
58339;DHT22;68636;52.704;6.536;2023-04-03T09:35:36;6.00;99.90
58339;DHT22;68636;52.704;6.536;2023-04-03T09:40:43;6.10;99.90
58339;DHT22;68636;52.704;6.536;2023-04-03T09:43:29;6.20;99.90
58339;DHT22;68636;52.704;6.536;2023-04-03T09:46:15;6.20;99.90
58339;DHT22;68636;52.704;6.536;2023-04-03T09:48:50;6.30;99.30
58339;DHT22;68636;52.704;6.536;2023-04-03T09:51:16;6.40;99.60
58339;DHT22;68636;52.704;6.536;2023-04-03T09:53:43;6.40;98.80
58339;DHT22;68636;52.704;6.536;2023-04-03T09:58:43;6.50;98.60
58339;DHT22;68636;52.704;6.536;2023-04-03T10:06:36;6.70;95.70
58339;DHT22;68636;52.704;6.536;2023-04-03T10:09:05;6.80;93.60
58339;DHT22;68636;52.704;6.536;2023-04-03T10:11:31;6.90;94.20
58339;DHT22;68636;52.704;6.536;2023-04-03T10:13:59;6.80;94.50
58339;DHT22;68636;52.704;6.536;2023-04-03T10:16:51;6.90;93.70
58339;DHT22;68636;52.704;6.536;2023-04-03T10:21:55;6.90;92.30
58339;DHT22;68636;52.704;6.536;2023-04-03T10:27:12;7.00;92.00
58339;DHT22;68636;52.704;6.536;2023-04-03T10:29:48;7.00;91.80
58339;DHT22;68636;52.704;6.536;2023-04-03T10:32:43;7.10;90.80
58339;DHT22;68636;52.704;6.536;2023-04-03T10:35:49;7.00;90.90
58339;DHT22;68636;52.704;6.536;2023-04-03T10:41:02;7.10;91.10
58339;DHT22;68636;52.704;6.536;2023-04-03T10:43:47;7.10;91.50
58339;DHT22;68636;52.704;6.536;2023-04-03T10:46:28;7.10;90.60
58339;DHT22;68636;52.704;6.536;2023-04-03T10:51:28;7.20;91.70
58339;DHT22;68636;52.704;6.536;2023-04-03T10:54:25;7.20;91.40
58339;DHT22;68636;52.704;6.536;2023-04-03T10:57:11;7.30;91.30
58339;DHT22;68636;52.704;6.536;2023-04-03T11:04:40;7.60;89.60
58339;DHT22;68636;52.704;6.536;2023-04-03T11:09:46;7.50;91.40
58339;DHT22;68636;52.704;6.536;2023-04-03T11:12:38;7.60;91.10
58339;DHT22;68636;52.704;6.536;2023-04-03T11:15:15;7.70;90.20
58339;DHT22;68636;52.704;6.536;2023-04-03T11:17:48;7.70;90.60
58339;DHT22;68636;52.704;6.536;2023-04-03T11:20:20;7.70;90.50
58339;DHT22;68636;52.704;6.536;2023-04-03T11:22:58;7.90;90.20
58339;DHT22;68636;52.704;6.536;2023-04-03T11:25:29;7.80;89.30
58339;DHT22;68636;52.704;6.536;2023-04-03T11:28:06;7.80;90.70
58339;DHT22;68636;52.704;6.536;2023-04-03T11:30:54;7.80;90.80
58339;DHT22;68636;52.704;6.536;2023-04-03T11:36:32;7.90;90.10
58339;DHT22;68636;52.704;6.536;2023-04-03T11:39:02;8.00;88.70
58339;DHT22;68636;52.704;6.536;2023-04-03T11:41:33;8.10;88.70
58339;DHT22;68636;52.704;6.536;2023-04-03T11:44:25;8.10;89.10
58339;DHT22;68636;52.704;6.536;2023-04-03T11:46:54;8.00;88.90
58339;DHT22;68636;52.704;6.536;2023-04-03T11:49:56;7.90;89.60
58339;DHT22;68636;52.704;6.536;2023-04-03T12:08:44;8.30;90.20
58339;DHT22;68636;52.704;6.536;2023-04-03T12:16:24;8.40;90.10
58339;DHT22;68636;52.704;6.536;2023-04-03T12:27:11;8.50;89.30
58339;DHT22;68636;52.704;6.536;2023-04-03T12:35:34;8.60;87.20
58339;DHT22;68636;52.704;6.536;2023-04-03T12:40:55;8.60;89.00
58339;DHT22;68636;52.704;6.536;2023-04-03T12:46:15;8.60;83.80
58339;DHT22;68636;52.704;6.536;2023-04-03T12:48:49;8.60;88.20
58339;DHT22;68636;52.704;6.536;2023-04-03T12:51:38;8.60;88.40
58339;DHT22;68636;52.704;6.536;2023-04-03T12:54:32;8.60;86.90
58339;DHT22;68636;52.704;6.536;2023-04-03T12:57:20;8.70;87.80
58339;DHT22;68636;52.704;6.536;2023-04-03T12:59:47;8.70;87.80
58339;DHT22;68636;52.704;6.536;2023-04-03T13:02:32;8.80;87.30
58339;DHT22;68636;52.704;6.536;2023-04-03T13:05:04;8.80;87.60
58339;DHT22;68636;52.704;6.536;2023-04-03T13:07:33;8.80;88.30
58339;DHT22;68636;52.704;6.536;2023-04-03T13:10:09;8.80;89.20
58339;DHT22;68636;52.704;6.536;2023-04-03T13:12:49;8.90;89.40
58339;DHT22;68636;52.704;6.536;2023-04-03T13:17:47;9.00;87.70
58339;DHT22;68636;52.704;6.536;2023-04-03T13:20:23;9.00;87.00
58339;DHT22;68636;52.704;6.536;2023-04-03T13:22:52;9.00;85.90
58339;DHT22;68636;52.704;6.536;2023-04-03T13:25:21;8.90;86.70
58339;DHT22;68636;52.704;6.536;2023-04-03T13:27:48;9.00;86.60
58339;DHT22;68636;52.704;6.536;2023-04-03T13:30:25;9.00;87.50
58339;DHT22;68636;52.704;6.536;2023-04-03T13:32:52;8.90;87.50
58339;DHT22;68636;52.704;6.536;2023-04-03T13:35:29;9.00;87.70
58339;DHT22;68636;52.704;6.536;2023-04-03T13:37:58;9.00;86.50
58339;DHT22;68636;52.704;6.536;2023-04-03T13:40:25;8.90;86.40
58339;DHT22;68636;52.704;6.536;2023-04-03T13:43:05;8.90;87.00
58339;DHT22;68636;52.704;6.536;2023-04-03T13:45:33;9.00;87.60
58339;DHT22;68636;52.704;6.536;2023-04-03T13:48:17;9.00;88.00
58339;DHT22;68636;52.704;6.536;2023-04-03T13:53:24;9.00;87.90
58339;DHT22;68636;52.704;6.536;2023-04-03T13:56:05;9.00;86.90
58339;DHT22;68636;52.704;6.536;2023-04-03T13:58:33;9.00;87.40
58339;DHT22;68636;52.704;6.536;2023-04-03T14:01:18;9.10;88.10
58339;DHT22;68636;52.704;6.536;2023-04-03T14:03:57;9.00;87.70
58339;DHT22;68636;52.704;6.536;2023-04-03T14:06:24;9.20;87.70
58339;DHT22;68636;52.704;6.536;2023-04-03T14:08:50;9.10;86.80
58339;DHT22;68636;52.704;6.536;2023-04-03T14:11:18;9.20;87.00
58339;DHT22;68636;52.704;6.536;2023-04-03T14:13:47;9.10;87.30
58339;DHT22;68636;52.704;6.536;2023-04-03T14:16:21;9.10;86.40
58339;DHT22;68636;52.704;6.536;2023-04-03T14:18:50;9.10;87.10
58339;DHT22;68636;52.704;6.536;2023-04-03T14:21:17;9.00;86.20
58339;DHT22;68636;52.704;6.536;2023-04-03T14:23:44;9.10;86.90
58339;DHT22;68636;52.704;6.536;2023-04-03T14:26:28;9.10;87.00
58339;DHT22;68636;52.704;6.536;2023-04-03T14:28:56;9.10;87.40
58339;DHT22;68636;52.704;6.536;2023-04-03T14:31:22;9.10;87.50
58339;DHT22;68636;52.704;6.536;2023-04-03T14:33:48;9.10;86.70
58339;DHT22;68636;52.704;6.536;2023-04-03T14:36:22;9.20;86.80
58339;DHT22;68636;52.704;6.536;2023-04-03T14:38:49;9.20;88.10
58339;DHT22;68636;52.704;6.536;2023-04-03T14:41:16;9.20;88.40
58339;DHT22;68636;52.704;6.536;2023-04-03T14:43:43;9.30;87.20
58339;DHT22;68636;52.704;6.536;2023-04-03T14:46:30;9.30;86.40
58339;DHT22;68636;52.704;6.536;2023-04-03T14:48:57;9.20;87.20
58339;DHT22;68636;52.704;6.536;2023-04-03T14:51:23;9.30;87.30
58339;DHT22;68636;52.704;6.536;2023-04-03T14:53:48;9.20;87.30
58339;DHT22;68636;52.704;6.536;2023-04-03T14:56:26;9.20;87.20
58339;DHT22;68636;52.704;6.536;2023-04-03T14:58:58;9.20;87.00
58339;DHT22;68636;52.704;6.536;2023-04-03T15:01:25;9.10;87.00
58339;DHT22;68636;52.704;6.536;2023-04-03T15:03:51;9.10;81.80
58339;DHT22;68636;52.704;6.536;2023-04-03T15:06:17;9.10;85.10
58339;DHT22;68636;52.704;6.536;2023-04-03T15:08:44;9.00;84.90
58339;DHT22;68636;52.704;6.536;2023-04-03T15:11:12;9.00;84.30
58339;DHT22;68636;52.704;6.536;2023-04-03T15:13:38;9.10;86.00
58339;DHT22;68636;52.704;6.536;2023-04-03T15:16:05;9.10;84.30
58339;DHT22;68636;52.704;6.536;2023-04-03T15:18:33;9.10;86.00
58339;DHT22;68636;52.704;6.536;2023-04-03T15:21:01;9.00;83.20
58339;DHT22;68636;52.704;6.536;2023-04-03T15:23:27;9.10;86.40
58339;DHT22;68636;52.704;6.536;2023-04-03T15:25:53;9.20;85.00
58339;DHT22;68636;52.704;6.536;2023-04-03T15:28:37;9.20;85.90
58339;DHT22;68636;52.704;6.536;2023-04-03T15:31:03;9.00;84.80
58339;DHT22;68636;52.704;6.536;2023-04-03T15:33:30;9.00;85.20
58339;DHT22;68636;52.704;6.536;2023-04-03T15:35:56;9.10;86.20
58339;DHT22;68636;52.704;6.536;2023-04-03T15:38:22;9.10;84.90
58339;DHT22;68636;52.704;6.536;2023-04-03T15:40:48;9.00;83.50
58339;DHT22;68636;52.704;6.536;2023-04-03T15:43:14;9.00;83.50
58339;DHT22;68636;52.704;6.536;2023-04-03T15:45:41;8.90;84.60
58339;DHT22;68636;52.704;6.536;2023-04-03T15:48:07;9.00;85.20
58339;DHT22;68636;52.704;6.536;2023-04-03T15:50:34;9.00;85.00
58339;DHT22;68636;52.704;6.536;2023-04-03T15:53:00;9.00;84.30
58339;DHT22;68636;52.704;6.536;2023-04-03T15:55:29;9.00;84.90
58339;DHT22;68636;52.704;6.536;2023-04-03T15:57:56;8.90;83.90
58339;DHT22;68636;52.704;6.536;2023-04-03T16:00:23;9.00;85.00
58339;DHT22;68636;52.704;6.536;2023-04-03T16:02:50;8.90;85.20
58339;DHT22;68636;52.704;6.536;2023-04-03T16:05:17;8.90;85.60
58339;DHT22;68636;52.704;6.536;2023-04-03T16:07:44;8.80;81.30
58339;DHT22;68636;52.704;6.536;2023-04-03T16:10:11;8.80;84.70
58339;DHT22;68636;52.704;6.536;2023-04-03T16:12:37;8.70;81.60
58339;DHT22;68636;52.704;6.536;2023-04-03T16:15:04;8.70;84.70
58339;DHT22;68636;52.704;6.536;2023-04-03T16:17:31;8.70;85.70
58339;DHT22;68636;52.704;6.536;2023-04-03T16:19:59;8.60;83.70
58339;DHT22;68636;52.704;6.536;2023-04-03T16:22:25;8.70;85.00
58339;DHT22;68636;52.704;6.536;2023-04-03T16:24:51;8.70;85.60
58339;DHT22;68636;52.704;6.536;2023-04-03T16:27:17;8.60;83.50
58339;DHT22;68636;52.704;6.536;2023-04-03T16:29:43;8.60;85.00
58339;DHT22;68636;52.704;6.536;2023-04-03T16:32:09;8.60;84.10
58339;DHT22;68636;52.704;6.536;2023-04-03T16:34:35;8.60;84.60
58339;DHT22;68636;52.704;6.536;2023-04-03T16:37:01;8.50;83.20
58339;DHT22;68636;52.704;6.536;2023-04-03T16:39:26;8.50;83.40
58339;DHT22;68636;52.704;6.536;2023-04-03T16:41:52;8.40;83.30
58339;DHT22;68636;52.704;6.536;2023-04-03T16:44:18;8.40;85.10
58339;DHT22;68636;52.704;6.536;2023-04-03T16:46:44;8.40;84.20
58339;DHT22;68636;52.704;6.536;2023-04-03T16:49:10;8.40;85.20
58339;DHT22;68636;52.704;6.536;2023-04-03T16:51:35;8.30;81.30
58339;DHT22;68636;52.704;6.536;2023-04-03T16:54:01;8.20;82.40
58339;DHT22;68636;52.704;6.536;2023-04-03T16:56:27;8.20;85.20
58339;DHT22;68636;52.704;6.536;2023-04-03T16:58:53;8.20;84.60
58339;DHT22;68636;52.704;6.536;2023-04-03T17:01:20;8.20;84.40
58339;DHT22;68636;52.704;6.536;2023-04-03T17:03:46;8.20;84.30
58339;DHT22;68636;52.704;6.536;2023-04-03T17:06:16;8.10;84.40
58339;DHT22;68636;52.704;6.536;2023-04-03T17:08:47;8.10;86.00
58339;DHT22;68636;52.704;6.536;2023-04-03T17:11:13;8.10;82.90
58339;DHT22;68636;52.704;6.536;2023-04-03T17:13:39;8.00;84.30
58339;DHT22;68636;52.704;6.536;2023-04-03T17:16:08;8.10;85.50
58339;DHT22;68636;52.704;6.536;2023-04-03T17:18:35;8.00;85.40
58339;DHT22;68636;52.704;6.536;2023-04-03T17:21:02;8.00;85.10
58339;DHT22;68636;52.704;6.536;2023-04-03T17:23:29;7.80;85.90
58339;DHT22;68636;52.704;6.536;2023-04-03T17:25:55;7.90;86.00
58339;DHT22;68636;52.704;6.536;2023-04-03T17:28:21;7.80;83.60
58339;DHT22;68636;52.704;6.536;2023-04-03T17:30:56;7.70;84.30
58339;DHT22;68636;52.704;6.536;2023-04-03T17:33:24;7.60;85.10
58339;DHT22;68636;52.704;6.536;2023-04-03T17:35:50;7.60;86.70
58339;DHT22;68636;52.704;6.536;2023-04-03T17:38:16;7.50;86.40
58339;DHT22;68636;52.704;6.536;2023-04-03T17:40:42;7.40;86.60